Time;durP1;ratioP1;P1;durP2;ratioP2;P2;SDS_P1;SDS_P2;PMS_P1;PMS_P2;Temp;Humidity;BMP_temperature;BMP_pressure;BME280_temperature;BME280_humidity;BME280_pressure;Samples;Min_cycle;Max_cycle;Signal;HPM_P1;HPM_P2
2023/07/21 00:04:44;;;;;;;1.85;0.85;;;;;;;17.26;54.49;97533.84;10512842;28;20529;-67
2023/07/21 00:10:10;;;;;;;3.92;0.93;;;;;;;17.21;54.68;97524.53;10512586;28;20477;-67
2023/07/21 00:15:32;;;;;;;3.03;0.75;;;;;;;17.23;54.66;97527.41;10513639;28;20067;-66
2023/07/21 00:20:54;;;;;;;5.25;1.00;;;;;;;17.23;54.85;97518.94;10526625;28;20086;-68
2023/07/21 00:26:15;;;;;;;5.28;0.85;;;;;;;17.23;54.78;97513.31;10526293;28;20414;-68
2023/07/21 00:31:39;;;;;;;4.25;0.70;;;;;;;17.21;54.78;97507.59;10540798;28;20154;-67
2023/07/21 00:37:00;;;;;;;1.33;0.70;;;;;;;17.16;54.97;97500.34;10525947;28;20094;-68
2023/07/21 00:42:21;;;;;;;2.67;0.70;;;;;;;17.11;54.84;97495.94;10525232;28;20067;-68
2023/07/21 00:47:42;;;;;;;0.70;0.40;;;;;;;17.11;54.94;97490.28;10525516;28;20052;-68
2023/07/21 00:53:05;;;;;;;1.52;0.60;;;;;;;17.09;54.68;97493.03;10540443;28;20158;-68
2023/07/21 00:58:26;;;;;;;1.73;0.70;;;;;;;17.12;55.04;97480.47;10524981;28;20068;-68
2023/07/21 01:03:46;;;;;;;1.40;0.60;;;;;;;17.19;55.24;97472.97;10497059;28;20293;-69
2023/07/21 01:09:08;;;;;;;1.67;0.70;;;;;;;17.22;54.99;97469.56;10496640;28;20504;-68
2023/07/21 01:14:29;;;;;;;1.10;0.50;;;;;;;17.21;54.96;97473.03;10510655;28;20166;-68
2023/07/21 01:19:50;;;;;;;1.33;0.50;;;;;;;17.21;55.15;97470.94;10524673;28;20068;-68
2023/07/21 01:25:11;;;;;;;1.50;0.50;;;;;;;17.18;55.03;97460.97;10524545;28;20071;-67
2023/07/21 01:30:32;;;;;;;2.40;0.60;;;;;;;17.18;55.16;97463.78;10496218;28;20538;-67
2023/07/21 01:35:53;;;;;;;1.65;0.70;;;;;;;17.20;55.07;97454.66;10510002;28;20509;-68
2023/07/21 01:41:14;;;;;;;1.30;0.65;;;;;;;17.17;55.35;97459.47;10510362;28;20127;-68
2023/07/21 01:46:35;;;;;;;1.92;0.60;;;;;;;17.16;55.19;97461.59;10496068;28;20040;-68
2023/07/21 01:51:58;;;;;;;1.65;0.63;;;;;;;17.18;55.33;97458.13;10499337;28;20537;-68
2023/07/21 01:57:34;;;;;;;1.58;0.60;;;;;;;17.13;55.60;97448.78;10518032;28;20085;-68
2023/07/21 02:02:54;;;;;;;2.85;0.60;;;;;;;17.05;55.66;97451.31;10504253;28;20079;-67
2023/07/21 02:08:15;;;;;;;2.25;0.70;;;;;;;16.97;55.69;97448.16;10517710;28;20068;-67
2023/07/21 02:13:36;;;;;;;2.03;0.60;;;;;;;16.88;55.82;97447.13;10531359;28;20071;-68
2023/07/21 02:18:57;;;;;;;1.98;0.70;;;;;;;16.91;55.88;97447.22;10546467;28;20044;-68
2023/07/21 02:24:17;;;;;;;1.38;0.60;;;;;;;16.97;56.13;97453.09;10516881;28;20120;-68
2023/07/21 02:29:38;;;;;;;4.20;0.68;;;;;;;16.96;56.00;97460.09;10530639;28;20074;-68
2023/07/21 02:34:59;;;;;;;1.98;0.82;;;;;;;16.94;56.15;97445.94;10516119;28;20181;-68
2023/07/21 02:40:21;;;;;;;1.60;0.60;;;;;;;16.93;56.19;97444.50;10545480;28;20079;-68
2023/07/21 02:45:50;;;;;;;2.17;0.60;;;;;;;16.97;56.15;97444.63;10530297;28;20056;-68
2023/07/21 02:51:11;;;;;;;3.17;0.80;;;;;;;16.98;56.22;97440.44;10529713;28;20443;-68
2023/07/21 02:56:38;;;;;;;1.85;0.63;;;;;;;16.96;56.21;97429.81;10529732;28;20516;-68
2023/07/21 03:02:07;;;;;;;2.97;1.02;;;;;;;16.95;56.31;97436.09;10504076;28;20382;-68
2023/07/21 03:07:37;;;;;;;2.85;0.80;;;;;;;16.95;56.26;97430.47;10503308;28;20496;-68
2023/07/21 03:12:59;;;;;;;2.70;1.13;;;;;;;16.95;56.39;97427.66;10515408;28;20070;-68
2023/07/21 03:18:23;;;;;;;1.88;0.75;;;;;;;16.98;56.53;97426.34;10543868;28;20300;-68
2023/07/21 03:24:01;;;;;;;1.80;0.80;;;;;;;16.99;56.38;97425.72;10516911;28;20068;-68
2023/07/21 03:29:22;;;;;;;2.58;0.75;;;;;;;16.97;56.33;97416.44;10528513;28;20553;-68
2023/07/21 03:34:42;;;;;;;1.80;0.98;;;;;;;17.01;56.32;97413.78;10514161;28;20048;-67
2023/07/21 03:40:07;;;;;;;1.73;1.05;;;;;;;17.06;56.31;97416.09;10528025;28;20124;-68
2023/07/21 03:45:29;;;;;;;1.50;0.93;;;;;;;17.06;56.50;97415.38;10514756;28;20115;-67
2023/07/21 03:50:50;;;;;;;3.92;1.10;;;;;;;17.16;56.21;97412.91;10527429;28;20070;-69
2023/07/21 03:56:12;;;;;;;1.90;0.85;;;;;;;17.24;56.24;97418.84;10513541;28;20036;-68
2023/07/21 04:01:32;;;;;;;4.03;1.00;;;;;;;17.31;56.29;97402.88;10526979;28;20133;-68
2023/07/21 04:06:53;;;;;;;1.42;0.75;;;;;;;17.45;56.04;97415.38;10526997;28;20051;-68
2023/07/21 04:12:15;;;;;;;2.22;1.10;;;;;;;17.62;55.65;97416.69;10498779;28;20071;-67
2023/07/21 04:17:36;;;;;;;5.03;1.08;;;;;;;17.69;55.42;97418.38;10525695;28;20063;-68
2023/07/21 04:22:57;;;;;;;2.03;1.15;;;;;;;17.80;55.41;97413.06;10526093;28;20079;-67
2023/07/21 04:28:18;;;;;;;1.65;1.10;;;;;;;17.80;54.70;97408.16;10526001;28;20125;-67
2023/07/21 04:33:39;;;;;;;3.45;1.40;;;;;;;17.81;55.23;97415.22;10525478;28;20082;-67
2023/07/21 04:39:01;;;;;;;3.78;1.67;;;;;;;18.10;55.46;97410.53;10525875;28;20520;-68
2023/07/21 04:44:21;;;;;;;2.97;1.02;;;;;;;18.37;55.45;97410.00;10511494;28;20090;-68
2023/07/21 04:49:42;;;;;;;4.85;1.13;;;;;;;18.74;55.06;97417.53;10525021;28;20154;-68
2023/07/21 04:55:04;;;;;;;2.55;1.20;;;;;;;18.96;54.28;97423.13;10525103;28;20036;-67
2023/07/21 05:00:27;;;;;;;4.72;1.20;;;;;;;19.08;54.03;97419.94;10511223;28;20122;-69
2023/07/21 05:05:48;;;;;;;3.03;1.15;;;;;;;19.24;53.51;97425.34;10525301;28;20119;-68
2023/07/21 05:11:09;;;;;;;5.75;1.15;;;;;;;19.39;53.04;97435.66;10524351;28;20071;-68
2023/07/21 05:16:32;;;;;;;5.63;1.30;;;;;;;19.32;52.82;97426.31;10510578;28;20063;-67
2023/07/21 05:22:15;;;;;;;2.42;1.10;;;;;;;19.34;51.76;97439.78;10527946;28;20135;-68
2023/07/21 05:28:03;;;;;;;2.13;1.10;;;;;;;19.71;51.74;97424.56;10544403;28;20489;-68
2023/07/21 05:33:26;;;;;;;2.95;1.15;;;;;;;19.94;50.87;97440.00;10518520;28;20127;-67
2023/07/21 05:38:48;;;;;;;2.40;1.05;;;;;;;20.34;50.16;97428.25;10532433;28;20126;-68
2023/07/21 05:44:10;;;;;;;3.10;1.15;;;;;;;20.65;49.24;97426.88;10517791;28;20115;-68
2023/07/21 05:49:33;;;;;;;3.60;1.10;;;;;;;20.81;48.81;97427.97;10532285;28;20066;-68
2023/07/21 05:54:56;;;;;;;4.72;2.00;;;;;;;21.13;47.56;97427.22;10531288;28;20036;-68
2023/07/21 06:00:21;;;;;;;7.30;4.38;;;;;;;21.46;46.40;97425.09;10517928;28;20509;-68
2023/07/21 06:05:51;;;;;;;8.77;3.10;;;;;;;22.10;45.70;97422.00;10518069;28;20111;-68
2023/07/21 06:11:35;;;;;;;10.48;7.05;;;;;;;22.91;44.48;97414.78;10545490;28;20135;-68
2023/07/21 06:17:10;;;;;;;16.05;9.43;;;;;;;23.47;43.11;97414.06;10530584;28;20115;-68
2023/07/21 06:22:31;;;;;;;15.57;11.05;;;;;;;24.27;41.93;97409.88;10530633;28;20071;-68
2023/07/21 06:27:52;;;;;;;10.73;6.60;;;;;;;24.07;40.62;97404.72;10545477;28;20043;-69
2023/07/21 06:33:14;;;;;;;;;;;;;;;23.73;40.35;97401.53;10530508;28;20071;-68
2023/07/21 06:38:40;;;;;;;4.32;1.88;;;;;;;24.03;39.18;97398.25;10515969;28;19920;-69
2023/07/21 06:44:24;;;;;;;5.15;1.52;;;;;;;23.97;38.83;97378.97;10544686;28;20071;-68
2023/07/21 06:50:04;;;;;;;6.50;1.80;;;;;;;24.18;38.87;97385.56;10544447;28;20036;-69
2023/07/21 06:55:25;;;;;;;4.40;1.33;;;;;;;24.41;39.14;97372.94;10514891;28;20471;-69
2023/07/21 07:00:46;;;;;;;4.63;1.60;;;;;;;25.14;37.91;97375.53;10528664;28;20068;-69
2023/07/21 07:06:08;;;;;;;5.10;1.25;;;;;;;25.43;36.40;97367.06;10514995;28;20071;-69
2023/07/21 07:11:28;;;;;;;2.83;1.27;;;;;;;26.29;36.02;97351.44;10543597;28;20115;-69
2023/07/21 07:16:50;;;;;;;3.28;0.80;;;;;;;27.30;34.83;97349.78;10514404;28;20060;-69
2023/07/21 07:22:12;;;;;;;1.58;0.60;;;;;;;28.02;34.04;97345.06;10514072;28;20059;-69
2023/07/21 07:27:34;;;;;;;7.38;1.00;;;;;;;28.55;31.95;97335.28;10514165;28;20470;-69
2023/07/21 07:32:55;;;;;;;3.77;0.77;;;;;;;28.66;31.69;97342.34;10543227;28;20082;-69
2023/07/21 07:38:30;;;;;;;3.95;0.65;;;;;;;28.92;31.10;97335.63;10527492;28;20555;-69
2023/07/21 07:43:51;;;;;;;4.10;0.57;;;;;;;28.88;30.68;97335.66;10529397;28;20048;-69
2023/07/21 07:49:13;;;;;;;8.90;0.68;;;;;;;28.89;30.54;97325.63;10526789;28;20060;-69
2023/07/21 07:54:35;;;;;;;3.35;0.70;;;;;;;29.07;30.04;97331.13;10527282;28;20044;-69
2023/07/21 08:00:06;;;;;;;2.25;0.40;;;;;;;29.16;28.71;97323.13;10541906;28;20051;-69
2023/07/21 08:05:37;;;;;;;1.88;0.43;;;;;;;28.79;28.77;97335.75;10541552;28;20063;-69
2023/07/21 08:10:57;;;;;;;;;;;;;;;28.06;29.97;97324.94;10542249;28;20123;-69
2023/07/21 08:16:18;;;;;;;4.05;0.50;;;;;;;28.62;29.38;97320.13;10525865;28;20510;-69
2023/07/21 08:21:39;;;;;;;2.50;0.57;;;;;;;28.63;29.22;97304.31;10525982;28;20043;-69
2023/07/21 08:27:02;;;;;;;2.58;0.52;;;;;;;28.30;29.18;97300.38;10525768;28;20044;-69
2023/07/21 08:32:23;;;;;;;3.92;0.70;;;;;;;27.86;30.17;97296.41;10540629;28;20052;-68
2023/07/21 08:37:43;;;;;;;4.72;0.80;;;;;;;28.67;29.88;97289.94;10540579;28;20067;-69
2023/07/21 08:43:04;;;;;;;1.73;0.50;;;;;;;29.20;29.06;97295.03;10540418;28;20115;-69
2023/07/21 08:48:27;;;;;;;0.80;0.40;;;;;;;30.85;26.96;97277.94;10511168;28;20047;-69
2023/07/21 08:53:48;;;;;;;1.50;0.40;;;;;;;30.77;26.76;97270.19;10524815;28;20509;-68
2023/07/21 08:59:09;;;;;;;1.00;0.43;;;;;;;30.42;26.66;97290.28;10539686;28;20056;-69
2023/07/21 09:04:31;;;;;;;4.83;0.60;;;;;;;30.13;26.70;97287.22;10539485;28;20410;-69
2023/07/21 09:09:52;;;;;;;4.10;0.50;;;;;;;30.76;25.85;97271.66;10539158;28;20047;-69
2023/07/21 09:15:13;;;;;;;1.55;0.40;;;;;;;31.26;25.68;97260.53;10524356;28;20071;-69
2023/07/21 09:20:35;;;;;;;3.47;0.40;;;;;;;30.84;25.02;97267.19;10538953;28;20044;-68
2023/07/21 09:25:57;;;;;;;1.63;0.47;;;;;;;29.88;25.80;97271.78;10524065;28;20076;-68
2023/07/21 09:31:17;;;;;;;2.58;0.50;;;;;;;30.34;25.97;97264.53;10495686;28;20051;-69
2023/07/21 09:36:45;;;;;;;1.30;0.43;;;;;;;30.88;25.37;97270.69;10495766;28;20115;-69
2023/07/21 09:42:05;;;;;;;2.65;0.45;;;;;;;32.09;24.04;97275.16;10538547;28;20055;-69
2023/07/21 09:47:26;;;;;;;3.67;0.63;;;;;;;31.29;24.16;97253.28;10538670;28;20097;-69
2023/07/21 09:52:47;;;;;;;2.10;0.60;;;;;;;31.23;24.79;97250.50;10538548;28;20290;-69
2023/07/21 09:58:09;;;;;;;2.07;0.40;;;;;;;30.40;25.20;97257.94;10509299;28;20070;-68
2023/07/21 10:03:32;;;;;;;1.27;0.45;;;;;;;29.47;25.98;97251.56;10509556;28;20068;-68
2023/07/21 10:08:53;;;;;;;1.70;0.40;;;;;;;28.85;27.16;97257.41;10522865;28;20044;-69
2023/07/21 10:14:29;;;;;;;1.90;0.50;;;;;;;28.48;27.34;97252.13;10527992;28;20109;-69
2023/07/21 10:20:07;;;;;;;3.00;0.50;;;;;;;28.29;27.99;97241.56;10546083;28;20121;-68
2023/07/21 10:25:27;;;;;;;3.03;0.50;;;;;;;28.00;28.06;97246.84;10530718;28;20398;-68
2023/07/21 10:30:49;;;;;;;2.85;0.40;;;;;;;28.38;28.52;97243.63;10545323;28;20131;-68
2023/07/21 10:36:14;;;;;;;2.70;0.50;;;;;;;29.95;27.82;97232.81;10544992;28;20071;-69
2023/07/21 10:41:34;;;;;;;3.95;0.65;;;;;;;32.04;25.61;97224.81;10544996;28;20044;-69
2023/07/21 10:46:55;;;;;;;4.20;0.60;;;;;;;33.17;24.02;97219.47;10545170;28;20063;-69
2023/07/21 10:52:16;;;;;;;0.95;0.40;;;;;;;32.08;23.95;97213.13;10544585;28;20145;-69
2023/07/21 10:57:37;;;;;;;1.30;0.73;;;;;;;31.46;24.01;97207.47;10544290;28;20498;-69
2023/07/21 11:02:58;;;;;;;4.57;0.40;;;;;;;31.51;24.52;97194.34;10529561;28;20119;-69
2023/07/21 11:08:26;;;;;;;2.50;0.50;;;;;;;31.63;23.41;97191.16;10544039;28;20378;-69
2023/07/21 11:13:46;;;;;;;1.65;0.50;;;;;;;31.29;23.79;97183.38;10543732;28;20351;-69
2023/07/21 11:19:08;;;;;;;1.67;0.60;;;;;;;32.03;24.03;97182.97;10528636;28;20064;-69
2023/07/21 11:24:29;;;;;;;2.10;0.57;;;;;;;31.47;23.65;97185.13;10527346;28;20071;-69
2023/07/21 11:29:50;;;;;;;5.00;0.60;;;;;;;30.79;24.80;97168.63;10514058;28;20070;-68
2023/07/21 11:35:11;;;;;;;3.30;0.95;;;;;;;30.18;25.75;97173.44;10513519;28;20048;-69
2023/07/21 11:40:33;;;;;;;5.43;1.10;;;;;;;30.78;25.33;97167.19;10527427;28;20071;-69
2023/07/21 11:45:54;;;;;;;4.40;1.03;;;;;;;31.30;24.90;97161.72;10513271;28;20097;-69
2023/07/21 11:51:15;;;;;;;2.22;0.57;;;;;;;31.71;24.73;97160.72;10542122;28;20516;-69
2023/07/21 11:56:36;;;;;;;3.60;0.50;;;;;;;32.48;24.34;97147.09;10513192;28;20051;-69
2023/07/21 12:01:57;;;;;;;2.70;0.80;;;;;;;33.09;22.86;97145.28;10526890;28;20048;-69
2023/07/21 12:07:19;;;;;;;4.35;0.75;;;;;;;32.38;22.91;97144.50;10526430;28;20070;-69
2023/07/21 12:12:40;;;;;;;2.90;0.60;;;;;;;31.45;24.24;97136.81;10526290;28;20044;-69
2023/07/21 12:18:00;;;;;;;1.92;0.55;;;;;;;30.44;25.62;97134.78;10525672;28;20043;-68
2023/07/21 12:23:21;;;;;;;1.53;0.60;;;;;;;29.87;26.19;97123.66;10541054;28;20109;-69
2023/07/21 12:28:42;;;;;;;5.50;0.70;;;;;;;30.13;26.08;97125.34;10525657;28;20071;-69
2023/07/21 12:34:04;;;;;;;2.47;0.68;;;;;;;30.05;26.60;97128.34;10510972;28;20088;-68
2023/07/21 12:39:24;;;;;;;;;;;;;;;29.28;26.70;97128.25;10526064;28;20040;-69
2023/07/21 12:44:45;;;;;;;6.38;0.60;;;;;;;29.00;27.24;97122.94;10540262;28;19920;-69
2023/07/21 12:50:06;;;;;;;5.00;0.85;;;;;;;29.40;27.69;97123.75;10540390;28;20119;-69
2023/07/21 12:55:27;;;;;;;1.55;0.60;;;;;;;30.72;26.48;97101.09;10524798;28;20067;-68
2023/07/21 13:00:48;;;;;;;4.80;0.80;;;;;;;30.96;25.90;97112.03;10524654;28;20149;-69
2023/07/21 13:06:08;;;;;;;2.07;0.60;;;;;;;31.07;25.37;97109.63;10539690;28;20068;-69
2023/07/21 13:11:29;;;;;;;4.43;0.60;;;;;;;30.88;25.26;97102.88;10524318;28;20111;-68
2023/07/21 13:16:50;;;;;;;7.47;0.70;;;;;;;29.54;26.64;97106.31;10539634;28;20077;-69
2023/07/21 13:22:11;;;;;;;3.20;1.02;;;;;;;29.31;27.32;97108.81;10539226;28;20162;-69
2023/07/21 13:27:32;;;;;;;4.37;0.63;;;;;;;28.64;27.99;97109.81;10539411;28;20063;-69
2023/07/21 13:32:52;;;;;;;4.25;0.60;;;;;;;28.63;28.43;97094.75;10524023;28;20076;-69
2023/07/21 13:38:13;;;;;;;4.05;0.70;;;;;;;28.57;28.49;97089.09;10539221;28;20131;-69
2023/07/21 13:43:34;;;;;;;2.90;0.73;;;;;;;28.57;28.31;97083.38;10523768;28;20393;-69
2023/07/21 13:48:56;;;;;;;6.10;0.70;;;;;;;28.73;28.83;97085.28;10543643;28;20115;-69
2023/07/21 13:54:17;;;;;;;2.50;0.57;;;;;;;29.06;28.31;97074.03;10547246;28;20067;-69
2023/07/21 13:59:38;;;;;;;2.53;0.65;;;;;;;29.41;27.97;97076.31;10503651;28;20445;-69
2023/07/21 14:04:58;;;;;;;2.97;0.68;;;;;;;29.38;27.45;97066.31;10546675;28;20051;-69
2023/07/21 14:10:19;;;;;;;1.73;0.50;;;;;;;29.15;27.57;97074.59;10517118;28;20127;-68
2023/07/21 14:15:40;;;;;;;1.70;0.50;;;;;;;28.22;28.45;97083.09;10531056;28;20062;-69
2023/07/21 14:21:01;;;;;;;3.42;0.70;;;;;;;27.71;29.20;97077.25;10530718;28;20047;-68
2023/07/21 14:26:22;;;;;;;5.78;0.85;;;;;;;27.60;29.72;97077.31;10545924;28;20047;-69
2023/07/21 14:31:43;;;;;;;2.73;0.60;;;;;;;28.23;29.56;97068.00;10545248;28;21577;-69
2023/07/21 14:37:04;;;;;;;1.33;0.70;;;;;;;27.98;29.15;97075.47;10545351;28;20069;-68
2023/07/21 14:42:25;;;;;;;3.37;1.00;;;;;;;26.75;34.11;97073.00;10530246;28;20051;-69
2023/07/21 14:47:46;;;;;;;6.93;1.10;;;;;;;25.75;38.26;97081.31;10529576;28;20123;-69
2023/07/21 14:53:07;;;;;;;4.13;1.10;;;;;;;25.23;39.87;97074.25;10529652;28;20095;-68
2023/07/21 14:58:28;;;;;;;3.25;0.90;;;;;;;25.14;39.88;97064.28;10529158;28;20075;-68
2023/07/21 15:03:49;;;;;;;2.25;0.88;;;;;;;24.92;40.11;97047.13;10515128;28;20474;-69
2023/07/21 15:09:10;;;;;;;3.55;0.90;;;;;;;24.77;39.33;97032.84;10544123;28;20094;-69
2023/07/21 15:14:31;;;;;;;3.60;0.98;;;;;;;24.72;40.58;97056.41;10528623;28;20082;-68
2023/07/21 15:19:52;;;;;;;2.13;1.10;;;;;;;24.36;41.13;97057.03;10500905;28;20468;-69
2023/07/21 15:25:13;;;;;;;3.30;0.85;;;;;;;24.24;40.96;97041.31;10528160;28;20522;-69
2023/07/21 15:30:34;;;;;;;2.38;0.88;;;;;;;24.20;41.03;97057.69;10514405;28;20075;-68
2023/07/21 15:35:55;;;;;;;1.77;0.85;;;;;;;24.33;40.78;97047.06;10542699;28;20135;-68
2023/07/21 15:41:16;;;;;;;2.28;0.77;;;;;;;24.42;40.21;97032.13;10527796;28;20071;-69
2023/07/21 15:46:37;;;;;;;2.63;0.85;;;;;;;24.43;39.99;97044.22;10527674;28;20074;-68
2023/07/21 15:51:57;;;;;;;3.15;0.77;;;;;;;24.60;39.69;97051.38;10542032;28;20119;-68
2023/07/21 15:57:18;;;;;;;1.83;1.00;;;;;;;24.57;39.38;97057.78;10513082;28;20067;-69
2023/07/21 16:02:39;;;;;;;3.72;1.10;;;;;;;24.46;39.92;97043.53;10541895;28;20554;-69
2023/07/21 16:08:00;;;;;;;1.63;0.90;;;;;;;24.66;40.11;97047.81;10527067;28;20490;-68
2023/07/21 16:13:21;;;;;;;2.42;1.05;;;;;;;24.74;39.76;97047.84;10540792;28;20173;-68
2023/07/21 16:18:43;;;;;;;1.23;0.73;;;;;;;24.85;39.53;97052.13;10541408;28;20170;-68
2023/07/21 16:24:04;;;;;;;2.57;0.80;;;;;;;25.25;39.81;97044.97;10540998;28;20043;-69
2023/07/21 16:29:27;;;;;;;2.30;0.80;;;;;;;25.44;39.04;97060.66;10541093;28;20114;-68
2023/07/21 16:34:48;;;;;;;4.82;0.70;;;;;;;25.53;39.07;97050.63;10540620;28;20125;-69
2023/07/21 16:40:10;;;;;;;1.83;0.52;;;;;;;25.61;39.16;97053.47;10525351;28;20060;-68
2023/07/21 16:45:31;;;;;;;2.88;0.77;;;;;;;25.43;38.89;97058.53;10511855;28;20044;-69
2023/07/21 16:50:52;;;;;;;2.25;0.90;;;;;;;25.26;38.81;97069.97;10540258;28;20124;-69
2023/07/21 16:56:12;;;;;;;2.67;0.98;;;;;;;25.17;39.22;97071.41;10511096;28;20063;-68
2023/07/21 17:01:33;;;;;;;3.28;1.10;;;;;;;25.26;39.16;97064.25;10539806;28;20516;-69
2023/07/21 17:06:55;;;;;;;2.83;0.90;;;;;;;25.28;39.13;97061.38;10539792;28;20139;-68
2023/07/21 17:12:17;;;;;;;7.87;0.60;;;;;;;25.03;39.75;97071.41;10539912;28;20063;-68
2023/07/21 17:17:38;;;;;;;3.03;0.70;;;;;;;24.84;39.88;97074.25;10524718;28;20123;-68
2023/07/21 17:22:59;;;;;;;2.10;0.80;;;;;;;24.62;39.72;97065.66;10539445;28;20136;-68
2023/07/21 17:28:19;;;;;;;3.08;1.25;;;;;;;24.26;40.50;97072.69;10539116;28;20127;-68
2023/07/21 17:33:40;;;;;;;2.58;1.45;;;;;;;24.06;40.66;97071.91;10524544;28;20091;-70
2023/07/21 17:39:01;;;;;;;2.03;1.00;;;;;;;23.90;40.96;97087.50;10538830;28;20067;-69
2023/07/21 17:44:21;;;;;;;5.68;0.80;;;;;;;23.99;41.36;97108.22;10539014;28;20082;-69
2023/07/21 17:49:42;;;;;;;4.32;2.15;;;;;;;23.99;41.04;97120.31;10538953;28;20120;-69
2023/07/21 17:55:03;;;;;;;5.70;3.72;;;;;;;23.87;41.10;97117.41;10523836;28;20040;-68
2023/07/21 18:00:26;;;;;;;3.55;0.90;;;;;;;23.82;41.27;97135.19;10524064;28;20071;-68
2023/07/21 18:05:47;;;;;;;4.65;1.00;;;;;;;23.80;41.46;97143.72;10538536;28;20063;-69
2023/07/21 18:11:08;;;;;;;2.08;1.00;;;;;;;23.73;41.59;97133.72;10523227;28;20551;-69
2023/07/21 18:16:28;;;;;;;2.65;0.95;;;;;;;23.54;41.76;97132.84;10538255;28;20114;-68
2023/07/21 18:21:49;;;;;;;2.38;0.82;;;;;;;23.28;42.17;97133.38;10509251;28;20048;-69
2023/07/21 18:27:10;;;;;;;3.08;1.10;;;;;;;23.03;42.54;97127.47;10523314;28;20113;-69
2023/07/21 18:32:31;;;;;;;3.45;1.33;;;;;;;22.80;43.21;97122.97;10538179;28;20461;-68
2023/07/21 18:37:52;;;;;;;1.80;0.73;;;;;;;22.61;43.73;97129.91;10530681;28;20067;-69
2023/07/21 18:43:13;;;;;;;1.48;0.85;;;;;;;22.55;43.88;97139.78;10530379;28;20067;-69
2023/07/21 18:48:34;;;;;;;4.97;1.00;;;;;;;22.51;44.50;97131.22;10545293;28;20071;-67
2023/07/21 18:53:57;;;;;;;6.55;1.38;;;;;;;22.43;44.79;97136.81;10544827;28;20186;-69
2023/07/21 18:59:18;;;;;;;3.60;1.40;;;;;;;22.25;45.75;97136.59;10529779;28;20512;-69
2023/07/21 19:04:39;;;;;;;2.97;0.90;;;;;;;22.12;45.92;97146.41;10529640;28;20127;-68
2023/07/21 19:10:06;;;;;;;4.38;1.17;;;;;;;21.95;46.53;97148.97;10544510;28;20439;-68
2023/07/21 19:15:27;;;;;;;4.78;1.10;;;;;;;21.83;47.25;97163.03;10515677;28;20040;-68
2023/07/21 19:20:48;;;;;;;5.25;1.27;;;;;;;21.76;47.37;97197.72;10543812;28;20158;-68
2023/07/21 19:26:09;;;;;;;4.35;1.35;;;;;;;21.80;47.60;97192.78;10514693;28;20610;-68
2023/07/21 19:31:30;;;;;;;2.97;1.20;;;;;;;21.74;47.76;97184.19;10543182;28;20127;-68
2023/07/21 19:36:55;;;;;;;4.68;1.17;;;;;;;21.57;48.09;97200.28;10529042;28;20107;-68
2023/07/21 19:42:16;;;;;;;3.65;1.23;;;;;;;21.44;48.46;97207.16;10528163;28;20203;-69
2023/07/21 19:47:36;;;;;;;4.63;1.00;;;;;;;21.37;48.79;97214.84;10541802;28;20036;-69
2023/07/21 19:52:58;;;;;;;5.18;1.23;;;;;;;21.41;49.03;97294.41;10542912;28;20115;-68
2023/07/21 19:58:19;;;;;;;12.20;1.48;;;;;;;21.18;49.87;97308.84;10513491;28;20072;-68
2023/07/21 20:03:42;;;;;;;5.73;1.40;;;;;;;20.55;51.59;97326.00;10542351;28;20374;-68
2023/07/21 20:09:06;;;;;;;5.60;1.30;;;;;;;19.89;53.64;97350.69;10527670;28;20043;-68
2023/07/21 20:14:27;;;;;;;4.60;1.80;;;;;;;19.49;56.81;97348.22;10541680;28;20182;-68
2023/07/21 20:19:49;;;;;;;4.53;1.60;;;;;;;18.94;57.29;97343.91;10541653;28;20047;-69
2023/07/21 20:25:11;;;;;;;5.57;1.77;;;;;;;18.50;59.16;97349.66;10512437;28;20139;-68
2023/07/21 20:30:32;;;;;;;3.97;1.50;;;;;;;18.10;60.91;97343.47;10540943;28;20050;-69
2023/07/21 20:35:53;;;;;;;4.90;1.63;;;;;;;17.86;62.50;97360.38;10540730;28;20048;-68
2023/07/21 20:41:15;;;;;;;3.90;1.42;;;;;;;17.79;63.58;97375.66;10497547;28;20090;-69
2023/07/21 20:46:36;;;;;;;8.43;2.13;;;;;;;17.82;63.03;97393.38;10511324;28;20044;-67
2023/07/21 20:51:57;;;;;;;3.80;1.75;;;;;;;17.57;64.94;97391.81;10511018;28;20043;-68
2023/07/21 20:57:19;;;;;;;5.37;1.80;;;;;;;17.56;66.50;97399.53;10525079;28;20040;-69
2023/07/21 21:02:42;;;;;;;4.60;1.67;;;;;;;17.59;67.17;97415.16;10539943;28;20068;-68
2023/07/21 21:08:05;;;;;;;;;;;;;;;17.74;69.09;97447.44;10511450;28;20048;-68
2023/07/21 21:13:26;;;;;;;6.10;2.00;;;;;;;17.87;67.83;97435.22;10539678;28;19923;-67
2023/07/21 21:18:46;;;;;;;5.85;2.03;;;;;;;17.90;67.87;97442.38;10524547;28;20158;-67
2023/07/21 21:24:07;;;;;;;3.80;1.52;;;;;;;17.85;68.49;97437.22;10539280;28;20068;-67
2023/07/21 21:29:28;;;;;;;3.47;1.55;;;;;;;17.84;68.78;97441.44;10510164;28;20060;-67
2023/07/21 21:34:49;;;;;;;2.63;1.67;;;;;;;17.74;69.00;97444.63;10523776;28;20066;-68
2023/07/21 21:40:10;;;;;;;3.58;1.75;;;;;;;17.77;69.37;97440.50;10523953;28;20060;-69
2023/07/21 21:45:34;;;;;;;3.80;1.80;;;;;;;17.85;69.26;97449.25;10510254;28;20075;-68
2023/07/21 21:50:56;;;;;;;4.82;1.52;;;;;;;17.90;68.46;97464.22;10523683;28;20040;-68
2023/07/21 21:56:17;;;;;;;4.82;1.65;;;;;;;17.81;69.20;97466.06;10524173;28;20072;-67
2023/07/21 22:01:38;;;;;;;6.45;1.63;;;;;;;17.85;69.39;97483.13;10509998;28;20462;-68
2023/07/21 22:07:00;;;;;;;5.30;2.38;;;;;;;17.89;69.46;97482.56;10509646;28;20044;-68
2023/07/21 22:12:21;;;;;;;5.45;2.05;;;;;;;17.86;70.05;97476.13;10518154;28;20510;-68
2023/07/21 22:17:42;;;;;;;10.20;2.72;;;;;;;17.89;70.29;97471.97;10546511;28;20074;-68
2023/07/21 22:23:03;;;;;;;4.80;2.67;;;;;;;17.91;70.23;97480.50;10546491;28;20075;-68
2023/07/21 22:28:24;;;;;;;5.90;2.63;;;;;;;17.91;70.54;97479.78;10546042;28;20074;-68
2023/07/21 22:33:45;;;;;;;4.63;1.92;;;;;;;17.92;70.20;97487.59;10545639;28;20181;-68
2023/07/21 22:39:06;;;;;;;4.90;2.50;;;;;;;17.89;70.50;97486.09;10516804;28;20044;-68
2023/07/21 22:44:27;;;;;;;3.83;1.92;;;;;;;17.86;70.19;97478.94;10545506;28;20118;-67
2023/07/21 22:49:48;;;;;;;4.07;2.08;;;;;;;17.75;71.04;97474.28;10530345;28;20120;-68
2023/07/21 22:55:09;;;;;;;4.72;2.65;;;;;;;17.78;71.67;97483.56;10529641;28;20076;-68
2023/07/21 23:00:30;;;;;;;4.07;2.13;;;;;;;17.80;71.41;97486.47;10544986;28;20044;-68
2023/07/21 23:05:51;;;;;;;3.65;2.17;;;;;;;17.73;71.87;97491.88;10544308;28;20097;-68
2023/07/21 23:11:11;;;;;;;5.68;1.95;;;;;;;17.69;71.77;97488.94;10501343;28;20161;-68
2023/07/21 23:16:32;;;;;;;3.40;1.70;;;;;;;17.58;71.53;97489.19;10529062;28;20032;-67
2023/07/21 23:21:53;;;;;;;3.83;1.75;;;;;;;17.44;71.98;97503.50;10543767;28;20055;-67
2023/07/21 23:27:14;;;;;;;2.78;1.73;;;;;;;17.49;71.88;97501.56;10528777;28;20063;-68
2023/07/21 23:32:35;;;;;;;2.30;1.35;;;;;;;17.51;71.97;97507.28;10514618;28;20075;-68
2023/07/21 23:37:56;;;;;;;2.10;1.25;;;;;;;17.53;72.38;97505.25;10543481;28;20095;-67
2023/07/21 23:43:17;;;;;;;3.22;1.58;;;;;;;17.54;72.40;97511.63;10527902;28;20118;-69
2023/07/21 23:48:38;;;;;;;2.88;1.52;;;;;;;17.55;72.26;97513.06;10527965;28;20482;-67
2023/07/21 23:54:00;;;;;;;3.25;1.75;;;;;;;17.47;72.02;97507.88;10542607;28;20115;-68
2023/07/21 23:59:21;;;;;;;4.03;1.73;;;;;;;17.33;72.14;97510.88;10527434;28;20040;-68
